sensor_id;sensor_type;location;lat;lon;timestamp;temperature;humidity
11764;DHT22;5939;56.522;14.950;2023-04-24T00:00:32;10.70;99.90
11764;DHT22;5939;56.522;14.950;2023-04-24T00:02:58;10.60;99.90
11764;DHT22;5939;56.522;14.950;2023-04-24T00:05:24;10.60;99.90
11764;DHT22;5939;56.522;14.950;2023-04-24T00:07:50;10.60;99.90
11764;DHT22;5939;56.522;14.950;2023-04-24T00:10:19;10.60;99.90
11764;DHT22;5939;56.522;14.950;2023-04-24T00:12:45;10.60;99.90
11764;DHT22;5939;56.522;14.950;2023-04-24T00:15:11;10.50;99.90
11764;DHT22;5939;56.522;14.950;2023-04-24T00:17:36;10.50;99.90
11764;DHT22;5939;56.522;14.950;2023-04-24T00:20:03;10.50;99.90
11764;DHT22;5939;56.522;14.950;2023-04-24T00:22:31;10.50;99.90
11764;DHT22;5939;56.522;14.950;2023-04-24T00:24:57;10.50;99.90
11764;DHT22;5939;56.522;14.950;2023-04-24T00:27:23;10.40;99.90
11764;DHT22;5939;56.522;14.950;2023-04-24T00:29:48;10.40;99.90
11764;DHT22;5939;56.522;14.950;2023-04-24T00:32:14;10.40;99.90
11764;DHT22;5939;56.522;14.950;2023-04-24T00:34:41;10.30;99.90
11764;DHT22;5939;56.522;14.950;2023-04-24T00:37:06;10.30;99.90
11764;DHT22;5939;56.522;14.950;2023-04-24T00:39:33;10.30;99.90
11764;DHT22;5939;56.522;14.950;2023-04-24T00:41:58;10.30;99.90
11764;DHT22;5939;56.522;14.950;2023-04-24T00:44:24;10.30;99.90
11764;DHT22;5939;56.522;14.950;2023-04-24T00:46:50;10.30;99.90
11764;DHT22;5939;56.522;14.950;2023-04-24T00:49:20;10.20;99.90
11764;DHT22;5939;56.522;14.950;2023-04-24T00:51:46;10.20;99.90
11764;DHT22;5939;56.522;14.950;2023-04-24T00:54:13;10.20;99.90
11764;DHT22;5939;56.522;14.950;2023-04-24T00:56:40;10.10;99.90
11764;DHT22;5939;56.522;14.950;2023-04-24T00:59:06;10.20;99.90
11764;DHT22;5939;56.522;14.950;2023-04-24T01:01:32;10.10;99.90
11764;DHT22;5939;56.522;14.950;2023-04-24T01:03:58;10.10;99.90
11764;DHT22;5939;56.522;14.950;2023-04-24T01:06:27;10.10;99.90
11764;DHT22;5939;56.522;14.950;2023-04-24T01:08:54;10.10;99.90
11764;DHT22;5939;56.522;14.950;2023-04-24T01:11:21;10.00;99.90
11764;DHT22;5939;56.522;14.950;2023-04-24T01:13:48;10.00;99.90
11764;DHT22;5939;56.522;14.950;2023-04-24T01:16:16;10.10;99.90
11764;DHT22;5939;56.522;14.950;2023-04-24T01:18:43;10.00;99.90
11764;DHT22;5939;56.522;14.950;2023-04-24T01:21:10;10.00;99.90
11764;DHT22;5939;56.522;14.950;2023-04-24T01:23:38;10.00;99.90
11764;DHT22;5939;56.522;14.950;2023-04-24T01:26:04;9.90;99.90
11764;DHT22;5939;56.522;14.950;2023-04-24T01:28:29;9.90;99.90
11764;DHT22;5939;56.522;14.950;2023-04-24T01:30:55;9.90;99.90
11764;DHT22;5939;56.522;14.950;2023-04-24T01:33:21;9.90;99.90
11764;DHT22;5939;56.522;14.950;2023-04-24T01:35:48;9.90;99.90
11764;DHT22;5939;56.522;14.950;2023-04-24T01:38:14;9.90;99.90
11764;DHT22;5939;56.522;14.950;2023-04-24T01:40:40;9.90;99.90
11764;DHT22;5939;56.522;14.950;2023-04-24T01:43:05;9.80;99.90
11764;DHT22;5939;56.522;14.950;2023-04-24T01:45:31;9.80;99.90
11764;DHT22;5939;56.522;14.950;2023-04-24T01:47:57;9.80;99.90
11764;DHT22;5939;56.522;14.950;2023-04-24T01:50:23;9.80;99.90
11764;DHT22;5939;56.522;14.950;2023-04-24T01:52:48;9.80;99.90
11764;DHT22;5939;56.522;14.950;2023-04-24T01:55:14;9.80;99.90
11764;DHT22;5939;56.522;14.950;2023-04-24T01:57:40;9.80;99.90
11764;DHT22;5939;56.522;14.950;2023-04-24T02:00:06;9.70;99.90
11764;DHT22;5939;56.522;14.950;2023-04-24T02:02:33;9.70;99.90
11764;DHT22;5939;56.522;14.950;2023-04-24T02:04:59;9.70;99.90
11764;DHT22;5939;56.522;14.950;2023-04-24T02:07:24;9.70;99.90
11764;DHT22;5939;56.522;14.950;2023-04-24T02:09:50;9.70;99.90
11764;DHT22;5939;56.522;14.950;2023-04-24T02:12:16;9.70;99.90
11764;DHT22;5939;56.522;14.950;2023-04-24T02:14:43;9.60;99.90
11764;DHT22;5939;56.522;14.950;2023-04-24T02:17:09;9.60;99.90
11764;DHT22;5939;56.522;14.950;2023-04-24T02:19:35;9.60;99.90
11764;DHT22;5939;56.522;14.950;2023-04-24T02:22:01;9.60;99.90
11764;DHT22;5939;56.522;14.950;2023-04-24T02:24:26;9.60;99.90
11764;DHT22;5939;56.522;14.950;2023-04-24T02:26:52;9.50;99.90
11764;DHT22;5939;56.522;14.950;2023-04-24T02:29:17;9.50;99.90
11764;DHT22;5939;56.522;14.950;2023-04-24T02:31:43;9.60;99.90
11764;DHT22;5939;56.522;14.950;2023-04-24T02:34:09;9.50;99.90
11764;DHT22;5939;56.522;14.950;2023-04-24T02:36:34;9.50;99.90
11764;DHT22;5939;56.522;14.950;2023-04-24T02:39:00;9.50;99.90
11764;DHT22;5939;56.522;14.950;2023-04-24T02:41:26;9.50;99.90
11764;DHT22;5939;56.522;14.950;2023-04-24T02:43:57;9.50;99.90
11764;DHT22;5939;56.522;14.950;2023-04-24T02:46:23;9.40;99.90
11764;DHT22;5939;56.522;14.950;2023-04-24T02:48:48;9.40;99.90
11764;DHT22;5939;56.522;14.950;2023-04-24T02:51:14;9.40;99.90
11764;DHT22;5939;56.522;14.950;2023-04-24T02:53:39;9.40;99.90
11764;DHT22;5939;56.522;14.950;2023-04-24T02:56:06;9.40;99.90
11764;DHT22;5939;56.522;14.950;2023-04-24T02:58:31;9.40;99.90
11764;DHT22;5939;56.522;14.950;2023-04-24T03:00:57;9.40;99.90
11764;DHT22;5939;56.522;14.950;2023-04-24T03:03:23;9.30;99.90
11764;DHT22;5939;56.522;14.950;2023-04-24T03:05:49;9.30;99.90
11764;DHT22;5939;56.522;14.950;2023-04-24T03:08:15;9.30;99.90
11764;DHT22;5939;56.522;14.950;2023-04-24T03:10:40;9.30;99.90
11764;DHT22;5939;56.522;14.950;2023-04-24T03:13:06;9.20;99.90
11764;DHT22;5939;56.522;14.950;2023-04-24T03:15:31;9.30;99.90
11764;DHT22;5939;56.522;14.950;2023-04-24T03:17:57;9.30;99.90
11764;DHT22;5939;56.522;14.950;2023-04-24T03:20:23;9.30;99.90
11764;DHT22;5939;56.522;14.950;2023-04-24T03:22:48;9.20;99.90
11764;DHT22;5939;56.522;14.950;2023-04-24T03:25:14;9.20;99.90
11764;DHT22;5939;56.522;14.950;2023-04-24T03:27:40;9.20;99.90
11764;DHT22;5939;56.522;14.950;2023-04-24T03:30:08;9.20;99.90
11764;DHT22;5939;56.522;14.950;2023-04-24T03:32:34;9.20;99.90
11764;DHT22;5939;56.522;14.950;2023-04-24T03:35:00;9.20;99.90
11764;DHT22;5939;56.522;14.950;2023-04-24T03:37:25;9.20;99.90
11764;DHT22;5939;56.522;14.950;2023-04-24T03:39:52;9.10;99.90
11764;DHT22;5939;56.522;14.950;2023-04-24T03:42:18;9.20;99.90
11764;DHT22;5939;56.522;14.950;2023-04-24T03:44:43;9.10;99.90
11764;DHT22;5939;56.522;14.950;2023-04-24T03:47:09;9.10;99.90
11764;DHT22;5939;56.522;14.950;2023-04-24T03:49:35;9.10;99.90
11764;DHT22;5939;56.522;14.950;2023-04-24T03:52:00;9.10;99.90
11764;DHT22;5939;56.522;14.950;2023-04-24T03:54:26;9.10;99.90
11764;DHT22;5939;56.522;14.950;2023-04-24T03:56:52;9.00;99.90
11764;DHT22;5939;56.522;14.950;2023-04-24T03:59:17;9.00;99.90
11764;DHT22;5939;56.522;14.950;2023-04-24T04:01:43;9.00;99.90
11764;DHT22;5939;56.522;14.950;2023-04-24T04:04:09;9.00;99.90
11764;DHT22;5939;56.522;14.950;2023-04-24T04:06:34;9.10;99.90
11764;DHT22;5939;56.522;14.950;2023-04-24T04:09:01;9.00;99.90
11764;DHT22;5939;56.522;14.950;2023-04-24T04:11:27;9.00;99.90
11764;DHT22;5939;56.522;14.950;2023-04-24T04:13:53;8.90;99.90
11764;DHT22;5939;56.522;14.950;2023-04-24T04:16:18;8.90;99.90
11764;DHT22;5939;56.522;14.950;2023-04-24T04:18:44;8.90;99.90
11764;DHT22;5939;56.522;14.950;2023-04-24T04:21:10;8.90;99.90
11764;DHT22;5939;56.522;14.950;2023-04-24T04:23:36;8.90;99.90
11764;DHT22;5939;56.522;14.950;2023-04-24T04:26:02;8.90;99.90
11764;DHT22;5939;56.522;14.950;2023-04-24T04:28:29;8.90;99.90
11764;DHT22;5939;56.522;14.950;2023-04-24T04:30:56;9.00;99.90
11764;DHT22;5939;56.522;14.950;2023-04-24T04:33:23;8.90;99.90
11764;DHT22;5939;56.522;14.950;2023-04-24T04:35:49;8.80;99.90
11764;DHT22;5939;56.522;14.950;2023-04-24T04:38:15;8.80;99.90
11764;DHT22;5939;56.522;14.950;2023-04-24T04:40:42;8.80;99.90
11764;DHT22;5939;56.522;14.950;2023-04-24T04:43:08;8.80;99.90
11764;DHT22;5939;56.522;14.950;2023-04-24T04:45:34;8.80;99.90
11764;DHT22;5939;56.522;14.950;2023-04-24T04:48:00;8.80;99.90
11764;DHT22;5939;56.522;14.950;2023-04-24T04:50:27;8.80;99.90
11764;DHT22;5939;56.522;14.950;2023-04-24T04:52:53;8.80;99.90
11764;DHT22;5939;56.522;14.950;2023-04-24T04:55:18;8.80;99.90
11764;DHT22;5939;56.522;14.950;2023-04-24T04:57:47;8.80;99.90
11764;DHT22;5939;56.522;14.950;2023-04-24T05:00:13;9.00;99.90
11764;DHT22;5939;56.522;14.950;2023-04-24T05:02:39;8.80;99.90
11764;DHT22;5939;56.522;14.950;2023-04-24T05:05:05;8.80;99.90
11764;DHT22;5939;56.522;14.950;2023-04-24T05:07:31;8.80;99.90
11764;DHT22;5939;56.522;14.950;2023-04-24T05:09:57;8.80;99.90
11764;DHT22;5939;56.522;14.950;2023-04-24T05:12:23;8.80;99.90
11764;DHT22;5939;56.522;14.950;2023-04-24T05:14:48;8.80;99.90
11764;DHT22;5939;56.522;14.950;2023-04-24T05:17:14;8.80;99.90
11764;DHT22;5939;56.522;14.950;2023-04-24T05:19:40;8.80;99.90
11764;DHT22;5939;56.522;14.950;2023-04-24T05:22:06;8.90;99.90
11764;DHT22;5939;56.522;14.950;2023-04-24T05:24:35;8.80;99.90
11764;DHT22;5939;56.522;14.950;2023-04-24T05:27:02;8.80;99.90
11764;DHT22;5939;56.522;14.950;2023-04-24T05:29:28;8.80;99.90
11764;DHT22;5939;56.522;14.950;2023-04-24T05:31:56;8.80;99.90
11764;DHT22;5939;56.522;14.950;2023-04-24T05:34:22;8.70;99.90
11764;DHT22;5939;56.522;14.950;2023-04-24T05:36:47;8.70;99.90
11764;DHT22;5939;56.522;14.950;2023-04-24T05:39:14;8.80;99.90
11764;DHT22;5939;56.522;14.950;2023-04-24T05:41:40;8.80;99.90
11764;DHT22;5939;56.522;14.950;2023-04-24T05:44:06;8.80;99.90
11764;DHT22;5939;56.522;14.950;2023-04-24T05:46:31;8.80;99.90
11764;DHT22;5939;56.522;14.950;2023-04-24T05:48:57;8.80;99.90
11764;DHT22;5939;56.522;14.950;2023-04-24T05:51:23;8.80;99.90
11764;DHT22;5939;56.522;14.950;2023-04-24T05:53:49;8.90;99.90
11764;DHT22;5939;56.522;14.950;2023-04-24T05:56:15;8.80;99.90
11764;DHT22;5939;56.522;14.950;2023-04-24T05:58:41;8.80;99.90
11764;DHT22;5939;56.522;14.950;2023-04-24T06:01:07;8.80;99.90
11764;DHT22;5939;56.522;14.950;2023-04-24T06:03:33;8.80;99.90
11764;DHT22;5939;56.522;14.950;2023-04-24T06:05:59;8.80;99.90
11764;DHT22;5939;56.522;14.950;2023-04-24T06:08:25;8.80;99.90
11764;DHT22;5939;56.522;14.950;2023-04-24T06:10:51;8.80;99.90
11764;DHT22;5939;56.522;14.950;2023-04-24T06:13:17;8.80;99.90
11764;DHT22;5939;56.522;14.950;2023-04-24T06:15:43;8.80;99.90
11764;DHT22;5939;56.522;14.950;2023-04-24T06:18:09;9.00;99.90
11764;DHT22;5939;56.522;14.950;2023-04-24T06:20:36;9.00;99.90
11764;DHT22;5939;56.522;14.950;2023-04-24T06:23:01;8.80;99.90
11764;DHT22;5939;56.522;14.950;2023-04-24T06:25:27;8.80;99.90
11764;DHT22;5939;56.522;14.950;2023-04-24T06:27:54;8.80;99.90
11764;DHT22;5939;56.522;14.950;2023-04-24T06:30:20;8.80;99.90
11764;DHT22;5939;56.522;14.950;2023-04-24T06:32:45;9.00;99.90
11764;DHT22;5939;56.522;14.950;2023-04-24T06:35:11;8.80;99.90
11764;DHT22;5939;56.522;14.950;2023-04-24T06:37:39;8.80;99.90
11764;DHT22;5939;56.522;14.950;2023-04-24T06:40:05;9.00;99.90
11764;DHT22;5939;56.522;14.950;2023-04-24T06:42:31;8.80;99.90
11764;DHT22;5939;56.522;14.950;2023-04-24T06:44:57;9.00;99.90
11764;DHT22;5939;56.522;14.950;2023-04-24T06:47:22;8.90;99.90
11764;DHT22;5939;56.522;14.950;2023-04-24T06:49:48;9.30;99.90
11764;DHT22;5939;56.522;14.950;2023-04-24T06:52:16;8.90;99.90
11764;DHT22;5939;56.522;14.950;2023-04-24T06:54:42;9.10;99.90
11764;DHT22;5939;56.522;14.950;2023-04-24T06:57:08;8.90;99.90
11764;DHT22;5939;56.522;14.950;2023-04-24T06:59:34;9.10;99.90
11764;DHT22;5939;56.522;14.950;2023-04-24T07:02:00;9.00;99.90
11764;DHT22;5939;56.522;14.950;2023-04-24T07:04:25;9.00;99.90
11764;DHT22;5939;56.522;14.950;2023-04-24T07:06:52;9.10;99.90
11764;DHT22;5939;56.522;14.950;2023-04-24T07:09:21;9.00;99.90
11764;DHT22;5939;56.522;14.950;2023-04-24T07:11:47;9.10;99.90
11764;DHT22;5939;56.522;14.950;2023-04-24T07:14:14;9.00;99.90
11764;DHT22;5939;56.522;14.950;2023-04-24T07:16:39;9.10;99.90
11764;DHT22;5939;56.522;14.950;2023-04-24T07:19:05;9.10;99.90
11764;DHT22;5939;56.522;14.950;2023-04-24T07:21:31;9.20;99.90
11764;DHT22;5939;56.522;14.950;2023-04-24T07:23:58;9.10;99.90
11764;DHT22;5939;56.522;14.950;2023-04-24T07:26:24;9.20;99.90
11764;DHT22;5939;56.522;14.950;2023-04-24T07:28:51;9.20;99.90
11764;DHT22;5939;56.522;14.950;2023-04-24T07:31:16;9.30;99.90
11764;DHT22;5939;56.522;14.950;2023-04-24T07:33:42;9.30;99.90
11764;DHT22;5939;56.522;14.950;2023-04-24T07:36:07;9.30;99.90
11764;DHT22;5939;56.522;14.950;2023-04-24T07:38:33;9.30;99.90
11764;DHT22;5939;56.522;14.950;2023-04-24T07:40:59;9.40;99.90
11764;DHT22;5939;56.522;14.950;2023-04-24T07:43:24;9.40;99.90
11764;DHT22;5939;56.522;14.950;2023-04-24T07:45:51;9.50;99.90
11764;DHT22;5939;56.522;14.950;2023-04-24T07:48:17;9.50;99.90
11764;DHT22;5939;56.522;14.950;2023-04-24T07:50:44;9.50;99.90
11764;DHT22;5939;56.522;14.950;2023-04-24T07:53:10;9.60;99.90
11764;DHT22;5939;56.522;14.950;2023-04-24T07:55:35;9.60;99.90
11764;DHT22;5939;56.522;14.950;2023-04-24T07:58:01;9.60;99.90
11764;DHT22;5939;56.522;14.950;2023-04-24T08:00:27;9.70;99.90
11764;DHT22;5939;56.522;14.950;2023-04-24T08:02:53;9.70;99.90
11764;DHT22;5939;56.522;14.950;2023-04-24T08:05:18;9.80;99.90
11764;DHT22;5939;56.522;14.950;2023-04-24T08:07:45;9.70;99.90
11764;DHT22;5939;56.522;14.950;2023-04-24T08:10:14;9.80;99.90
11764;DHT22;5939;56.522;14.950;2023-04-24T08:12:41;9.90;99.90
11764;DHT22;5939;56.522;14.950;2023-04-24T08:15:07;9.90;99.90
11764;DHT22;5939;56.522;14.950;2023-04-24T08:17:34;10.00;99.90
11764;DHT22;5939;56.522;14.950;2023-04-24T08:20:01;10.00;99.90
11764;DHT22;5939;56.522;14.950;2023-04-24T08:22:27;10.10;99.90
11764;DHT22;5939;56.522;14.950;2023-04-24T08:24:54;10.10;99.90
11764;DHT22;5939;56.522;14.950;2023-04-24T08:27:20;10.20;99.90
11764;DHT22;5939;56.522;14.950;2023-04-24T08:29:45;10.20;99.90
11764;DHT22;5939;56.522;14.950;2023-04-24T08:32:11;10.20;99.90
11764;DHT22;5939;56.522;14.950;2023-04-24T08:34:37;10.40;99.90
11764;DHT22;5939;56.522;14.950;2023-04-24T08:37:03;10.40;99.90
11764;DHT22;5939;56.522;14.950;2023-04-24T08:39:29;10.50;99.90
11764;DHT22;5939;56.522;14.950;2023-04-24T08:41:55;10.50;99.90
11764;DHT22;5939;56.522;14.950;2023-04-24T08:44:21;10.60;99.90
11764;DHT22;5939;56.522;14.950;2023-04-24T08:46:48;10.70;99.90
11764;DHT22;5939;56.522;14.950;2023-04-24T08:49:14;10.70;99.90
11764;DHT22;5939;56.522;14.950;2023-04-24T08:51:44;10.80;99.90
11764;DHT22;5939;56.522;14.950;2023-04-24T08:54:11;10.90;99.90
11764;DHT22;5939;56.522;14.950;2023-04-24T08:56:38;10.90;99.90
11764;DHT22;5939;56.522;14.950;2023-04-24T08:59:06;11.00;99.90
11764;DHT22;5939;56.522;14.950;2023-04-24T09:01:32;11.00;99.90
11764;DHT22;5939;56.522;14.950;2023-04-24T09:04:04;11.00;99.90
11764;DHT22;5939;56.522;14.950;2023-04-24T09:06:30;11.10;99.90
11764;DHT22;5939;56.522;14.950;2023-04-24T09:09:00;11.20;99.90
11764;DHT22;5939;56.522;14.950;2023-04-24T09:11:26;11.20;99.90
11764;DHT22;5939;56.522;14.950;2023-04-24T09:13:53;11.20;99.90
11764;DHT22;5939;56.522;14.950;2023-04-24T09:16:20;11.30;99.90
11764;DHT22;5939;56.522;14.950;2023-04-24T09:18:46;11.30;99.90
11764;DHT22;5939;56.522;14.950;2023-04-24T09:21:12;11.40;99.90
11764;DHT22;5939;56.522;14.950;2023-04-24T09:23:38;11.40;99.90
11764;DHT22;5939;56.522;14.950;2023-04-24T09:26:04;11.50;99.90
11764;DHT22;5939;56.522;14.950;2023-04-24T09:28:37;11.50;99.90
11764;DHT22;5939;56.522;14.950;2023-04-24T09:31:05;11.50;99.90
11764;DHT22;5939;56.522;14.950;2023-04-24T09:33:31;11.60;99.90
11764;DHT22;5939;56.522;14.950;2023-04-24T09:35:57;11.60;99.90
11764;DHT22;5939;56.522;14.950;2023-04-24T09:38:35;11.70;99.90
11764;DHT22;5939;56.522;14.950;2023-04-24T09:41:02;11.80;99.90
11764;DHT22;5939;56.522;14.950;2023-04-24T09:43:30;11.80;99.90
11764;DHT22;5939;56.522;14.950;2023-04-24T09:45:57;11.90;99.90
11764;DHT22;5939;56.522;14.950;2023-04-24T09:48:34;11.90;99.90
11764;DHT22;5939;56.522;14.950;2023-04-24T09:51:05;12.00;99.90
11764;DHT22;5939;56.522;14.950;2023-04-24T09:53:36;12.10;99.90
11764;DHT22;5939;56.522;14.950;2023-04-24T09:56:09;12.20;99.90
11764;DHT22;5939;56.522;14.950;2023-04-24T09:58:36;12.20;99.90
11764;DHT22;5939;56.522;14.950;2023-04-24T10:01:02;12.30;99.90
11764;DHT22;5939;56.522;14.950;2023-04-24T10:03:32;12.40;99.90
11764;DHT22;5939;56.522;14.950;2023-04-24T10:06:02;12.40;99.90
11764;DHT22;5939;56.522;14.950;2023-04-24T10:08:34;12.50;99.90
11764;DHT22;5939;56.522;14.950;2023-04-24T10:11:00;12.50;99.90
11764;DHT22;5939;56.522;14.950;2023-04-24T10:13:28;12.60;99.90
11764;DHT22;5939;56.522;14.950;2023-04-24T10:15:54;12.70;99.90
11764;DHT22;5939;56.522;14.950;2023-04-24T10:18:21;12.70;99.90
11764;DHT22;5939;56.522;14.950;2023-04-24T10:20:48;12.80;99.90
11764;DHT22;5939;56.522;14.950;2023-04-24T10:23:15;12.90;99.90
11764;DHT22;5939;56.522;14.950;2023-04-24T10:25:42;12.90;99.90
11764;DHT22;5939;56.522;14.950;2023-04-24T10:28:08;13.00;99.90
11764;DHT22;5939;56.522;14.950;2023-04-24T10:30:35;13.00;99.90
11764;DHT22;5939;56.522;14.950;2023-04-24T10:33:05;13.10;99.90
11764;DHT22;5939;56.522;14.950;2023-04-24T10:35:34;13.10;99.90
11764;DHT22;5939;56.522;14.950;2023-04-24T10:38:06;13.20;99.90
11764;DHT22;5939;56.522;14.950;2023-04-24T10:40:34;13.30;99.90
11764;DHT22;5939;56.522;14.950;2023-04-24T10:43:05;13.30;99.90
11764;DHT22;5939;56.522;14.950;2023-04-24T10:45:33;13.40;99.90
11764;DHT22;5939;56.522;14.950;2023-04-24T10:48:03;13.40;99.90
11764;DHT22;5939;56.522;14.950;2023-04-24T10:50:41;13.40;99.90
11764;DHT22;5939;56.522;14.950;2023-04-24T10:53:16;13.50;99.90
11764;DHT22;5939;56.522;14.950;2023-04-24T10:55:44;13.60;99.90
11764;DHT22;5939;56.522;14.950;2023-04-24T10:58:10;13.70;99.90
11764;DHT22;5939;56.522;14.950;2023-04-24T11:00:38;13.80;99.90
11764;DHT22;5939;56.522;14.950;2023-04-24T11:03:31;13.80;99.90
11764;DHT22;5939;56.522;14.950;2023-04-24T11:06:08;13.80;99.90
11764;DHT22;5939;56.522;14.950;2023-04-24T11:08:46;13.80;99.90
11764;DHT22;5939;56.522;14.950;2023-04-24T11:11:18;13.90;99.90
11764;DHT22;5939;56.522;14.950;2023-04-24T11:16:30;14.00;99.90
11764;DHT22;5939;56.522;14.950;2023-04-24T11:21:57;14.10;99.90
11764;DHT22;5939;56.522;14.950;2023-04-24T11:24:48;14.10;99.90
11764;DHT22;5939;56.522;14.950;2023-04-24T11:27:17;14.20;99.90
11764;DHT22;5939;56.522;14.950;2023-04-24T11:29:47;14.20;99.90
11764;DHT22;5939;56.522;14.950;2023-04-24T11:35:01;14.30;99.90
11764;DHT22;5939;56.522;14.950;2023-04-24T11:37:36;14.30;99.90
11764;DHT22;5939;56.522;14.950;2023-04-24T11:40:03;14.30;99.90
11764;DHT22;5939;56.522;14.950;2023-04-24T11:42:37;14.30;99.90
11764;DHT22;5939;56.522;14.950;2023-04-24T11:45:15;14.30;99.90
11764;DHT22;5939;56.522;14.950;2023-04-24T11:47:43;14.30;99.90
11764;DHT22;5939;56.522;14.950;2023-04-24T11:50:11;14.30;99.90
11764;DHT22;5939;56.522;14.950;2023-04-24T11:52:39;14.30;99.90
11764;DHT22;5939;56.522;14.950;2023-04-24T11:57:53;14.30;99.90
11764;DHT22;5939;56.522;14.950;2023-04-24T12:00:24;14.30;99.90
11764;DHT22;5939;56.522;14.950;2023-04-24T12:02:51;14.30;99.90
11764;DHT22;5939;56.522;14.950;2023-04-24T12:05:24;14.30;99.90
11764;DHT22;5939;56.522;14.950;2023-04-24T12:07:51;14.30;99.90
11764;DHT22;5939;56.522;14.950;2023-04-24T12:10:21;14.20;99.90
11764;DHT22;5939;56.522;14.950;2023-04-24T12:12:47;14.30;99.90
11764;DHT22;5939;56.522;14.950;2023-04-24T12:15:16;14.30;99.90
11764;DHT22;5939;56.522;14.950;2023-04-24T12:17:42;14.30;99.90
11764;DHT22;5939;56.522;14.950;2023-04-24T12:20:09;14.30;99.90
11764;DHT22;5939;56.522;14.950;2023-04-24T12:22:52;14.30;99.90
11764;DHT22;5939;56.522;14.950;2023-04-24T12:25:21;14.30;99.90
11764;DHT22;5939;56.522;14.950;2023-04-24T12:27:55;14.30;99.90
11764;DHT22;5939;56.522;14.950;2023-04-24T12:30:42;14.30;99.90
11764;DHT22;5939;56.522;14.950;2023-04-24T12:33:10;14.20;99.90
11764;DHT22;5939;56.522;14.950;2023-04-24T12:35:35;14.20;99.90
11764;DHT22;5939;56.522;14.950;2023-04-24T12:38:08;14.20;99.90
11764;DHT22;5939;56.522;14.950;2023-04-24T12:40:34;14.20;99.90
11764;DHT22;5939;56.522;14.950;2023-04-24T12:43:00;14.20;99.90
11764;DHT22;5939;56.522;14.950;2023-04-24T12:45:26;14.20;99.90
11764;DHT22;5939;56.522;14.950;2023-04-24T12:47:53;14.20;99.90
11764;DHT22;5939;56.522;14.950;2023-04-24T12:50:19;14.20;99.90
11764;DHT22;5939;56.522;14.950;2023-04-24T12:52:44;14.20;99.90
11764;DHT22;5939;56.522;14.950;2023-04-24T12:55:10;14.20;99.90
11764;DHT22;5939;56.522;14.950;2023-04-24T12:57:38;14.20;99.90
11764;DHT22;5939;56.522;14.950;2023-04-24T13:00:06;14.20;99.90
11764;DHT22;5939;56.522;14.950;2023-04-24T13:02:32;14.20;99.90
11764;DHT22;5939;56.522;14.950;2023-04-24T13:04:58;14.20;99.90
11764;DHT22;5939;56.522;14.950;2023-04-24T13:07:25;14.20;99.90
11764;DHT22;5939;56.522;14.950;2023-04-24T13:09:51;14.20;99.90
11764;DHT22;5939;56.522;14.950;2023-04-24T13:12:17;14.20;99.90
11764;DHT22;5939;56.522;14.950;2023-04-24T13:14:43;14.20;99.90
11764;DHT22;5939;56.522;14.950;2023-04-24T13:17:09;14.20;99.90
11764;DHT22;5939;56.522;14.950;2023-04-24T13:19:38;14.10;99.90
11764;DHT22;5939;56.522;14.950;2023-04-24T13:22:04;14.10;99.90
11764;DHT22;5939;56.522;14.950;2023-04-24T13:24:31;14.10;99.90
11764;DHT22;5939;56.522;14.950;2023-04-24T13:26:57;14.20;99.90
11764;DHT22;5939;56.522;14.950;2023-04-24T13:29:23;14.10;99.90
11764;DHT22;5939;56.522;14.950;2023-04-24T13:31:53;14.10;99.90
11764;DHT22;5939;56.522;14.950;2023-04-24T13:34:25;14.20;99.90
11764;DHT22;5939;56.522;14.950;2023-04-24T13:36:55;14.20;99.90
11764;DHT22;5939;56.522;14.950;2023-04-24T13:39:22;14.20;99.90
11764;DHT22;5939;56.522;14.950;2023-04-24T13:41:48;14.20;99.90
11764;DHT22;5939;56.522;14.950;2023-04-24T13:44:18;14.20;99.90
11764;DHT22;5939;56.522;14.950;2023-04-24T13:46:45;14.20;99.90
11764;DHT22;5939;56.522;14.950;2023-04-24T13:49:13;14.10;99.90
11764;DHT22;5939;56.522;14.950;2023-04-24T13:51:39;14.10;99.90
11764;DHT22;5939;56.522;14.950;2023-04-24T13:54:05;14.20;99.90
11764;DHT22;5939;56.522;14.950;2023-04-24T13:56:31;14.20;99.90
11764;DHT22;5939;56.522;14.950;2023-04-24T13:58:57;14.10;99.90
11764;DHT22;5939;56.522;14.950;2023-04-24T14:01:24;14.20;99.90
11764;DHT22;5939;56.522;14.950;2023-04-24T14:03:54;14.20;99.90
11764;DHT22;5939;56.522;14.950;2023-04-24T14:06:21;14.20;99.90
11764;DHT22;5939;56.522;14.950;2023-04-24T14:08:48;14.20;99.90
11764;DHT22;5939;56.522;14.950;2023-04-24T14:11:14;14.20;99.90
11764;DHT22;5939;56.522;14.950;2023-04-24T14:13:41;14.20;99.90
11764;DHT22;5939;56.522;14.950;2023-04-24T14:16:07;14.20;99.90
11764;DHT22;5939;56.522;14.950;2023-04-24T14:18:33;14.20;99.90
11764;DHT22;5939;56.522;14.950;2023-04-24T14:20:59;14.20;99.90
11764;DHT22;5939;56.522;14.950;2023-04-24T14:23:26;14.20;99.90
11764;DHT22;5939;56.522;14.950;2023-04-24T14:25:52;14.30;99.90
11764;DHT22;5939;56.522;14.950;2023-04-24T14:28:19;14.20;99.90
11764;DHT22;5939;56.522;14.950;2023-04-24T14:30:46;14.20;99.90
11764;DHT22;5939;56.522;14.950;2023-04-24T14:33:12;14.30;99.90
11764;DHT22;5939;56.522;14.950;2023-04-24T14:35:39;14.20;99.90
11764;DHT22;5939;56.522;14.950;2023-04-24T14:38:05;14.30;99.90
11764;DHT22;5939;56.522;14.950;2023-04-24T14:40:31;14.30;99.90
11764;DHT22;5939;56.522;14.950;2023-04-24T14:42:58;14.30;99.90
11764;DHT22;5939;56.522;14.950;2023-04-24T14:45:24;14.30;99.90
11764;DHT22;5939;56.522;14.950;2023-04-24T14:47:50;14.30;99.90
11764;DHT22;5939;56.522;14.950;2023-04-24T14:50:16;14.30;99.90
11764;DHT22;5939;56.522;14.950;2023-04-24T14:52:42;14.30;99.90
11764;DHT22;5939;56.522;14.950;2023-04-24T14:55:08;14.30;99.90
11764;DHT22;5939;56.522;14.950;2023-04-24T14:57:34;14.30;99.90
11764;DHT22;5939;56.522;14.950;2023-04-24T15:00:01;14.30;99.90
11764;DHT22;5939;56.522;14.950;2023-04-24T15:02:28;14.30;99.90
11764;DHT22;5939;56.522;14.950;2023-04-24T15:04:54;14.20;99.90
11764;DHT22;5939;56.522;14.950;2023-04-24T15:07:20;14.30;99.90
11764;DHT22;5939;56.522;14.950;2023-04-24T15:09:46;14.30;99.90
11764;DHT22;5939;56.522;14.950;2023-04-24T15:12:13;14.30;99.90
11764;DHT22;5939;56.522;14.950;2023-04-24T15:14:38;14.20;99.90
11764;DHT22;5939;56.522;14.950;2023-04-24T15:17:04;14.20;99.90
11764;DHT22;5939;56.522;14.950;2023-04-24T15:19:31;14.20;99.90
11764;DHT22;5939;56.522;14.950;2023-04-24T15:21:57;14.20;99.90
11764;DHT22;5939;56.522;14.950;2023-04-24T15:24:23;14.20;99.90
11764;DHT22;5939;56.522;14.950;2023-04-24T15:26:48;14.20;99.90
11764;DHT22;5939;56.522;14.950;2023-04-24T15:29:14;14.20;99.90
11764;DHT22;5939;56.522;14.950;2023-04-24T15:31:40;14.10;99.90
11764;DHT22;5939;56.522;14.950;2023-04-24T15:34:06;14.10;99.90
11764;DHT22;5939;56.522;14.950;2023-04-24T15:36:32;14.10;99.90
11764;DHT22;5939;56.522;14.950;2023-04-24T15:38:58;14.10;99.90
11764;DHT22;5939;56.522;14.950;2023-04-24T15:41:23;14.00;99.90
11764;DHT22;5939;56.522;14.950;2023-04-24T15:43:49;14.00;99.90
11764;DHT22;5939;56.522;14.950;2023-04-24T15:46:15;14.00;99.90